Aérodrome :
LOGIN :

S'inscrire | Disclaimer

   EN    FR    IT 

 










Légende :    VFR   VFR Marginal   IFR   IFR Intensif   IFR Très Intensif
Visi : 
Plafond : 
>= 8 km
>= 3000ft
5 à 8 km
1000 à 3000 ft
1500m à 5 km
500 à 1000 ft
800 à 1500m
200 à 500 ft
< 800m
< 200 ft
Symboles :   Orages  Brouillard  Fortes neiges  Fortes précipitations  Vent > 20 kt
SIGMETs :   Divers  Orages  Givrage  Turbulence  Onde Orograph.  Cendres Volcan.






- Altitude de l'aérodrome : 1487 ft
- Code IATA : MUC


EDDM - München Franz Josef Strauss

DERNIER METAR :
  • 271450Z 17011KT 150V220 9999 SCT023 OVC045 05/M06 Q0997 BECMG FM1600 0500 +SN VV005

METARs EXPIRÉS :
  • 271420Z 14010KT 120V180 CAVOK 05/M06 Q0998 NOSIG
  • 271350Z 13008KT CAVOK 05/M05 Q0998 NOSIG
  • 271320Z 16007KT 120V190 9999 FEW045 06/M06 Q0999 NOSIG
  • 271250Z 19008KT 170V250 9999 FEW045 06/M06 Q1001 BECMG TL1400 14010KT
  • 271220Z 23009KT 9999 FEW040 06/M06 Q1002 BECMG TL1400 14010KT

TAF TAF EDDM
Valide du 27 à 12h jusqu'au 28 à 18h UTC


271100Z 2712/2818 24012KT 9999 BKN045
BECMG 2713/2715 14008KT
FM271600 14010KT 2000 -SN BKN012
TEMPO 2716/2720 0600 +SN VV004
FM272000 24025G45KT 9999 BKN020
TEMPO 2720/2724 27035G55KT
TEMPO 2722/2805 1200 SHSN SCT004 BKN009TCU
BECMG 2800/2802 28015G30KT
BECMG 2813/2815 24006KT
BECMG 2816/2818 15003KT



MET'MAP, la Météo Aéronautique d'un coup d'oeil ! - Copyright ORBIFLY Décembre 2007 - Disclaimer

ORBIFLY MET'MAP TEAM :

Programmation & Développement : Alexandra Zaïnal
Sur une idée originale de : Baudouin d'Aumeries
Assistance à la programmation : Marc-Olivier Méhu
Soutien technique & logistique : Manuel Goepfert

Contact : metmap@orbifly.com




SOURCES & CREDITS :

   NOAA